createdAt,value
2018-12-14T00:00:34.064Z,101602.58
2018-12-14T00:03:04.190Z,101598.16
2018-12-14T00:05:34.461Z,101600.32
2018-12-14T00:08:04.863Z,101599.55
2018-12-14T00:10:35.901Z,101603.22
2018-12-14T00:13:06.203Z,101601.48
2018-12-14T00:15:36.551Z,101597.52
2018-12-14T00:18:12.860Z,101600.66
2018-12-14T00:20:45.332Z,101606.30
2018-12-14T00:23:16.844Z,101598.16
2018-12-14T00:25:48.169Z,101605.04
2018-12-14T00:28:18.362Z,101605.51
2018-12-14T00:30:48.497Z,101611.62
2018-12-14T00:33:18.783Z,101609.46
2018-12-14T00:35:49.126Z,101621.50
2018-12-14T00:40:57.271Z,101619.34
2018-12-14T00:43:27.555Z,101615.95
2018-12-14T00:45:57.776Z,101620.34
2018-12-14T00:48:27.979Z,101618.02
2018-12-14T00:50:58.275Z,101619.17
2018-12-14T00:53:28.447Z,101624.55
2018-12-14T00:55:58.675Z,101619.36
2018-12-14T00:58:28.947Z,101620.80
2018-12-14T01:00:59.096Z,101621.34
2018-12-14T01:03:29.253Z,101624.62
2018-12-14T01:05:59.521Z,101622.39
2018-12-14T01:08:29.611Z,101626.34
2018-12-14T01:11:00.159Z,101629.48
2018-12-14T01:13:30.364Z,101638.59
2018-12-14T01:16:00.560Z,101637.83
2018-12-14T01:18:30.943Z,101638.56
2018-12-14T01:21:01.097Z,101639.06
2018-12-14T01:23:31.283Z,101645.65
2018-12-14T01:28:41.126Z,101641.73
2018-12-14T01:31:11.297Z,101641.76
2018-12-14T01:33:41.320Z,101633.21
2018-12-14T01:36:11.488Z,101632.21
2018-12-14T01:38:41.770Z,101639.59
2018-12-14T01:41:12.185Z,101634.81
2018-12-14T01:43:42.492Z,101630.55
2018-12-14T01:46:12.776Z,101633.68
2018-12-14T01:48:42.871Z,101637.57
2018-12-14T01:51:13.108Z,101637.11
2018-12-14T01:53:43.322Z,101633.31
2018-12-14T01:56:13.500Z,101636.41
2018-12-14T01:58:43.688Z,101636.80
2018-12-14T02:01:13.835Z,101635.34
2018-12-14T02:03:43.935Z,101635.88
2018-12-14T02:06:14.318Z,101634.98
2018-12-14T02:08:44.566Z,101635.44
2018-12-14T02:11:14.785Z,101637.67
2018-12-14T02:13:44.904Z,101636.73
2018-12-14T02:16:15.018Z,101627.78
2018-12-14T02:18:45.221Z,101627.26
2018-12-14T02:21:15.508Z,101631.24
2018-12-14T02:23:45.805Z,101625.53
2018-12-14T02:26:16.242Z,101617.34
2018-12-14T02:28:46.401Z,101626.95
2018-12-14T02:31:16.531Z,101622.93
2018-12-14T02:33:46.653Z,101624.76
2018-12-14T02:36:16.912Z,101618.80
2018-12-14T02:38:47.086Z,101621.39
2018-12-14T02:41:17.372Z,101622.63
2018-12-14T02:43:47.715Z,101622.90
2018-12-14T02:46:18.019Z,101614.88
2018-12-14T02:48:48.328Z,101617.81
2018-12-14T02:51:18.749Z,101619.17
2018-12-14T02:53:48.909Z,101620.41
2018-12-14T02:56:19.082Z,101620.87
2018-12-14T02:58:49.259Z,101612.68
2018-12-14T03:01:19.605Z,101608.42
2018-12-14T03:03:49.708Z,101608.84
2018-12-14T03:06:20.479Z,101602.77
2018-12-14T03:08:50.578Z,101612.55
2018-12-14T03:11:20.747Z,101608.20
2018-12-14T03:13:50.901Z,101608.13
2018-12-14T03:16:21.243Z,101610.59
2018-12-14T03:18:51.363Z,101613.84
2018-12-14T03:21:21.461Z,101609.59
2018-12-14T03:23:51.586Z,101616.55
2018-12-14T03:26:22.016Z,101617.38
2018-12-14T03:28:52.214Z,101619.53
2018-12-14T03:31:22.687Z,101613.16
2018-12-14T03:33:52.846Z,101616.98
2018-12-14T03:36:23.070Z,101614.22
2018-12-14T03:38:53.811Z,101619.97
2018-12-14T03:41:23.992Z,101614.88
2018-12-14T03:43:54.185Z,101616.27
2018-12-14T03:46:24.384Z,101607.58
2018-12-14T03:48:54.527Z,101611.09
2018-12-14T03:51:29.744Z,101601.95
2018-12-14T03:53:59.885Z,101607.05
2018-12-14T03:56:30.158Z,101601.47
2018-12-14T03:59:00.384Z,101600.23
2018-12-14T04:01:30.790Z,101595.87
2018-12-14T04:04:00.906Z,101595.09
2018-12-14T04:06:31.120Z,101592.59
2018-12-14T04:09:01.327Z,101598.55
2018-12-14T04:11:31.657Z,101596.88
2018-12-14T04:14:01.749Z,101603.80
2018-12-14T04:16:32.037Z,101609.08
2018-12-14T04:19:02.263Z,101612.45
2018-12-14T04:21:32.530Z,101609.92
2018-12-14T04:24:02.848Z,101610.84
2018-12-14T04:26:33.033Z,101612.92
2018-12-14T04:29:03.353Z,101601.61
2018-12-14T04:31:33.567Z,101605.70
2018-12-14T04:34:04.032Z,101609.56
2018-12-14T04:36:34.208Z,101610.02
2018-12-14T04:39:05.792Z,101611.29
2018-12-14T04:41:36.121Z,101615.02
2018-12-14T04:44:06.394Z,101620.04
2018-12-14T04:46:36.650Z,101620.87
2018-12-14T04:49:06.791Z,101620.94
2018-12-14T04:51:37.194Z,101616.78
2018-12-14T04:54:07.283Z,101614.75
2018-12-14T04:56:37.651Z,101617.90
2018-12-14T04:59:08.010Z,101611.99
2018-12-14T05:01:38.353Z,101612.95
2018-12-14T05:04:08.698Z,101621.14
2018-12-14T05:06:38.830Z,101625.17
2018-12-14T05:09:09.212Z,101623.85
2018-12-14T05:11:39.690Z,101623.94
2018-12-14T05:14:09.898Z,101626.05
2018-12-14T05:16:40.135Z,101621.39
2018-12-14T05:19:10.414Z,101631.34
2018-12-14T05:21:40.892Z,101626.56
2018-12-14T05:24:11.219Z,101622.69
2018-12-14T05:26:41.568Z,101618.90
2018-12-14T05:29:11.883Z,101627.53
2018-12-14T05:31:42.197Z,101626.19
2018-12-14T05:34:12.439Z,101624.05
2018-12-14T05:36:42.709Z,101629.70
2018-12-14T05:39:12.990Z,101627.16
2018-12-14T05:41:43.242Z,101632.27
2018-12-14T05:44:13.583Z,101632.27
2018-12-14T05:46:44.022Z,101624.94
2018-12-14T05:49:14.318Z,101624.10
2018-12-14T05:51:44.894Z,101626.18
2018-12-14T05:54:15.484Z,101621.91
2018-12-14T05:56:45.986Z,101623.28
2018-12-14T05:59:16.264Z,101622.39
2018-12-14T06:01:46.517Z,101631.99
2018-12-14T06:04:16.720Z,101630.21
2018-12-14T06:06:47.007Z,101634.61
2018-12-14T06:09:17.242Z,101639.89
2018-12-14T06:11:47.601Z,101634.70
2018-12-14T06:14:17.649Z,101641.27
2018-12-14T06:16:47.963Z,101656.29
2018-12-14T06:19:18.058Z,101658.46
2018-12-14T06:21:48.219Z,101646.87
2018-12-14T06:24:18.445Z,101652.93
2018-12-14T06:26:48.667Z,101653.39
2018-12-14T06:29:18.931Z,101657.31
2018-12-14T06:31:49.067Z,101658.59
2018-12-14T06:34:19.272Z,101662.02
2018-12-14T06:36:49.527Z,101655.55
2018-12-14T06:39:20.040Z,101656.87
2018-12-14T06:41:50.617Z,101657.31
2018-12-14T06:44:20.729Z,101657.72
2018-12-14T06:46:50.893Z,101659.45
2018-12-14T06:49:21.110Z,101667.32
2018-12-14T06:51:51.309Z,101677.70
2018-12-14T06:54:21.424Z,101667.32
2018-12-14T06:56:51.723Z,101670.78
2018-12-14T06:59:21.882Z,101679.93
2018-12-14T07:01:52.115Z,101680.41
2018-12-14T07:04:22.232Z,101682.13
2018-12-14T07:06:52.435Z,101692.03
2018-12-14T07:09:22.659Z,101692.50
2018-12-14T07:11:52.781Z,101697.38
2018-12-14T07:14:22.979Z,101705.11
2018-12-14T07:16:53.061Z,101699.06
2018-12-14T07:19:23.303Z,101711.67
2018-12-14T07:21:53.636Z,101702.55
2018-12-14T07:24:23.930Z,101699.52
2018-12-14T07:26:54.179Z,101707.30
2018-12-14T07:29:24.341Z,101715.55
2018-12-14T07:31:54.691Z,101716.44
2018-12-14T07:34:24.915Z,101719.05
2018-12-14T07:36:55.210Z,101712.19
2018-12-14T07:39:25.286Z,101727.25
2018-12-14T07:41:55.462Z,101729.47
2018-12-14T07:44:25.823Z,101724.23
2018-12-14T07:46:56.119Z,101724.80
2018-12-14T07:49:26.264Z,101733.03
2018-12-14T07:51:56.373Z,101731.76
2018-12-14T07:54:26.501Z,101726.13
2018-12-14T07:56:56.571Z,101731.25
2018-12-14T07:59:26.736Z,101735.66
2018-12-14T08:01:56.987Z,101740.88
2018-12-14T08:04:27.652Z,101746.89
2018-12-14T08:06:58.377Z,101746.82
2018-12-14T08:09:28.580Z,101747.33
2018-12-14T08:11:58.875Z,101746.03
2018-12-14T08:14:29.059Z,101742.66
2018-12-14T08:16:59.439Z,101755.20
2018-12-14T08:19:29.479Z,101762.06
2018-12-14T08:21:59.714Z,101755.64
2018-12-14T08:24:29.876Z,101758.72
2018-12-14T08:29:46.485Z,101764.02
2018-12-14T08:32:17.204Z,101766.12
2018-12-14T08:34:50.960Z,101769.20
2018-12-14T08:37:20.491Z,101767.80
2018-12-14T08:39:50.969Z,101764.74
2018-12-14T08:42:22.071Z,101773.45
2018-12-14T08:44:52.428Z,101770.92
2018-12-14T08:47:22.689Z,101777.00
2018-12-14T08:49:53.678Z,101779.98
2018-12-14T08:52:24.974Z,101783.50
2018-12-14T08:54:55.314Z,101779.52
2018-12-14T08:57:25.813Z,101790.75
2018-12-14T08:59:56.108Z,101786.47
2018-12-14T09:02:26.586Z,101794.29
2018-12-14T09:04:59.009Z,101799.92
2018-12-14T09:07:29.360Z,101798.23
2018-12-14T09:09:59.898Z,101793.91
2018-12-14T09:12:30.178Z,101795.20
2018-12-14T09:15:00.447Z,101793.91
2018-12-14T09:17:30.641Z,101802.98
2018-12-14T09:20:01.370Z,101801.28
2018-12-14T09:22:31.662Z,101806.09
2018-12-14T09:25:02.209Z,101800.41
2018-12-14T09:27:32.338Z,101801.42
2018-12-14T09:30:02.401Z,101800.09
2018-12-14T09:32:32.851Z,101799.75
2018-12-14T09:35:03.346Z,101803.69
2018-12-14T09:37:33.869Z,101802.33
2018-12-14T09:40:04.175Z,101806.80
2018-12-14T09:42:34.294Z,101808.97
2018-12-14T09:45:04.901Z,101807.22
2018-12-14T09:47:35.206Z,101816.30
2018-12-14T09:50:05.880Z,101808.91
2018-12-14T09:52:36.252Z,101809.89
2018-12-14T09:55:06.600Z,101813.80
2018-12-14T09:57:36.831Z,101807.38
2018-12-14T10:00:07.608Z,101806.97
2018-12-14T10:02:38.197Z,101805.60
2018-12-14T10:05:10.109Z,101809.97
2018-12-14T10:07:46.670Z,101805.63
2018-12-14T10:10:13.224Z,101806.52
2018-12-14T10:12:43.632Z,101803.49
2018-12-14T10:15:13.841Z,101809.22
2018-12-14T10:17:43.987Z,101808.79
2018-12-14T10:20:14.293Z,101806.98
2018-12-14T10:22:48.416Z,101805.67
2018-12-14T10:25:23.624Z,101801.29
2018-12-14T10:27:53.970Z,101803.49
2018-12-14T10:30:24.190Z,101800.05
2018-12-14T10:32:54.333Z,101798.73
2018-12-14T10:35:25.683Z,101792.77
2018-12-14T10:37:56.448Z,101796.64
2018-12-14T10:40:26.623Z,101792.23
2018-12-14T10:42:56.753Z,101791.03
2018-12-14T10:45:28.206Z,101785.70
2018-12-14T10:47:58.325Z,101781.83
2018-12-14T10:50:35.487Z,101781.02
2018-12-14T10:53:04.637Z,101784.44
2018-12-14T10:55:34.974Z,101775.41
2018-12-14T10:58:05.584Z,101784.92
2018-12-14T11:00:40.989Z,101780.96
2018-12-14T11:03:11.347Z,101775.38
2018-12-14T11:05:41.646Z,101777.88
2018-12-14T11:08:11.738Z,101769.64
2018-12-14T11:10:41.806Z,101765.24
2018-12-14T11:13:12.109Z,101771.35
2018-12-14T11:15:42.291Z,101769.21
2018-12-14T11:18:12.585Z,101770.48
2018-12-14T11:20:42.774Z,101776.56
2018-12-14T11:23:13.086Z,101767.45
2018-12-14T11:25:50.358Z,101769.23
2018-12-14T11:28:21.226Z,101772.25
2018-12-14T11:30:51.372Z,101771.95
2018-12-14T11:33:21.598Z,101767.25
2018-12-14T11:35:53.173Z,101763.76
2018-12-14T11:38:23.698Z,101772.33
2018-12-14T11:40:53.897Z,101762.65
2018-12-14T11:43:24.242Z,101761.86
2018-12-14T11:45:54.540Z,101764.50
2018-12-14T11:48:24.968Z,101763.73
2018-12-14T11:50:55.478Z,101762.74
2018-12-14T11:53:25.817Z,101763.27
2018-12-14T11:55:57.577Z,101764.05
2018-12-14T11:58:27.907Z,101769.72
2018-12-14T12:00:58.197Z,101766.65
2018-12-14T12:03:29.004Z,101767.92
2018-12-14T12:06:02.678Z,101762.29
2018-12-14T12:08:35.404Z,101763.59
2018-12-14T12:11:06.013Z,101766.16
2018-12-14T12:13:36.899Z,101758.75
2018-12-14T12:16:07.231Z,101759.70
2018-12-14T12:18:37.497Z,101761.47
2018-12-14T12:21:07.847Z,101764.44
2018-12-14T12:23:55.302Z,101757.52
2018-12-14T12:26:22.932Z,101762.29
2018-12-14T12:28:53.198Z,101761.97
2018-12-14T12:31:23.332Z,101762.85
2018-12-14T12:33:53.456Z,101761.03
2018-12-14T12:36:24.700Z,101761.85
2018-12-14T12:38:54.986Z,101758.41
2018-12-14T12:41:26.519Z,101761.52
2018-12-14T12:43:56.675Z,101758.90
2018-12-14T12:46:28.879Z,101765.82
2018-12-14T12:49:00.383Z,101766.20
2018-12-14T12:51:31.063Z,101762.74
2018-12-14T12:54:01.242Z,101764.94
2018-12-14T12:56:31.492Z,101761.03
2018-12-14T12:59:01.759Z,101770.60
2018-12-14T13:01:32.352Z,101766.31
2018-12-14T13:04:03.074Z,101759.30
2018-12-14T13:06:33.228Z,101763.22
2018-12-14T13:09:04.443Z,101765.52
2018-12-14T13:11:34.713Z,101765.92
2018-12-14T13:14:05.465Z,101774.09
2018-12-14T13:16:35.544Z,101769.27
2018-12-14T13:19:05.629Z,101766.25
2018-12-14T13:21:35.762Z,101764.41
2018-12-14T13:24:05.883Z,101767.98
2018-12-14T13:26:35.963Z,101764.52
2018-12-14T13:29:06.023Z,101766.78
2018-12-14T13:31:36.164Z,101776.30
2018-12-14T13:34:06.361Z,101770.19
2018-12-14T13:36:36.452Z,101779.25
2018-12-14T13:39:08.257Z,101774.98
2018-12-14T13:41:38.391Z,101777.59
2018-12-14T13:44:08.569Z,101778.36
2018-12-14T13:46:38.614Z,101781.39
2018-12-14T13:49:09.362Z,101789.63
2018-12-14T13:51:39.534Z,101790.14
2018-12-14T13:54:09.653Z,101787.16
2018-12-14T13:56:40.103Z,101788.82
2018-12-14T13:59:10.217Z,101789.66
2018-12-14T14:01:40.271Z,101795.33
2018-12-14T14:04:10.365Z,101795.23
2018-12-14T14:06:40.498Z,101800.09
2018-12-14T14:09:10.547Z,101804.45
2018-12-14T14:11:40.518Z,101811.40
2018-12-14T14:14:10.601Z,101813.10
2018-12-14T14:16:40.630Z,101806.20
2018-12-14T14:19:10.669Z,101816.58
2018-12-14T14:21:40.774Z,101823.91
2018-12-14T14:24:10.866Z,101831.30
2018-12-14T14:26:44.505Z,101828.30
2018-12-14T14:29:13.018Z,101829.55
2018-12-14T14:31:43.173Z,101837.84
2018-12-14T14:34:13.264Z,101847.81
2018-12-14T14:36:43.404Z,101849.12
2018-12-14T14:39:13.462Z,101853.38
2018-12-14T14:41:43.517Z,101844.30
2018-12-14T14:44:13.623Z,101853.87
2018-12-14T14:46:43.797Z,101849.41
2018-12-14T14:49:13.985Z,101846.88
2018-12-14T14:51:44.360Z,101856.00
2018-12-14T14:54:14.462Z,101853.34
2018-12-14T14:56:44.525Z,101850.63
2018-12-14T14:59:14.631Z,101852.01
2018-12-14T15:01:44.772Z,101857.63
2018-12-14T15:04:15.863Z,101853.72
2018-12-14T15:06:46.222Z,101856.83
2018-12-14T15:09:16.316Z,101855.06
2018-12-14T15:11:46.370Z,101863.70
2018-12-14T15:14:16.414Z,101867.14
2018-12-14T15:16:46.465Z,101862.44
2018-12-14T15:19:16.642Z,101869.36
2018-12-14T15:21:46.732Z,101865.45
2018-12-14T15:24:16.823Z,101869.31
2018-12-14T15:26:46.894Z,101866.63
2018-12-14T15:29:16.915Z,101867.58
2018-12-14T15:31:47.470Z,101868.03
2018-12-14T15:34:17.609Z,101870.20
2018-12-14T15:36:47.630Z,101872.03
2018-12-14T15:39:17.727Z,101874.95
2018-12-14T15:41:47.755Z,101881.84
2018-12-14T15:44:17.821Z,101883.16
2018-12-14T15:46:47.897Z,101881.11
2018-12-14T15:49:17.951Z,101887.65
2018-12-14T15:51:47.996Z,101882.38
2018-12-14T15:54:18.073Z,101891.17
2018-12-14T15:56:48.115Z,101892.03
2018-12-14T15:59:18.422Z,101887.65
2018-12-14T16:01:48.553Z,101888.38
2018-12-14T16:04:25.474Z,101895.91
2018-12-14T16:06:55.663Z,101892.34
2018-12-14T16:09:25.868Z,101896.17
2018-12-14T16:11:56.031Z,101892.22
2018-12-14T16:14:26.338Z,101895.36
2018-12-14T16:16:56.729Z,101897.94
2018-12-14T16:19:26.876Z,101900.16
2018-12-14T16:21:56.961Z,101894.42
2018-12-14T16:24:27.140Z,101898.27
2018-12-14T16:26:57.327Z,101891.89
2018-12-14T16:29:27.427Z,101901.44
2018-12-14T16:31:57.497Z,101898.01
2018-12-14T16:34:27.542Z,101896.78
2018-12-14T16:36:57.835Z,101895.36
2018-12-14T16:39:27.923Z,101898.40
2018-12-14T16:41:58.043Z,101895.67
2018-12-14T16:44:29.439Z,101899.55
2018-12-14T16:46:59.624Z,101896.23
2018-12-14T16:49:29.671Z,101895.64
2018-12-14T16:51:59.728Z,101887.86
2018-12-14T16:54:29.805Z,101891.72
2018-12-14T16:56:59.853Z,101897.27
2018-12-14T16:59:30.236Z,101899.44
2018-12-14T17:02:00.230Z,101900.41
2018-12-14T17:04:30.360Z,101907.34
2018-12-14T17:07:00.682Z,101910.47
2018-12-14T17:09:30.820Z,101911.74
2018-12-14T17:12:00.846Z,101916.87
2018-12-14T17:14:30.932Z,101918.27
2018-12-14T17:17:00.961Z,101918.63
2018-12-14T17:19:31.042Z,101922.97
2018-12-14T17:22:01.080Z,101924.38
2018-12-14T17:24:31.224Z,101928.73
2018-12-14T17:27:01.419Z,101935.27
2018-12-14T17:29:31.514Z,101929.44
2018-12-14T17:32:01.554Z,101935.63
2018-12-14T17:34:31.606Z,101936.88
2018-12-14T17:37:01.875Z,101929.95
2018-12-14T17:39:32.278Z,101931.69
2018-12-14T17:42:02.428Z,101938.13
2018-12-14T17:44:32.489Z,101938.06
2018-12-14T17:47:02.722Z,101944.22
2018-12-14T17:49:32.806Z,101942.45
2018-12-14T17:52:03.283Z,101947.63
2018-12-14T17:54:33.419Z,101946.70
2018-12-14T17:57:03.474Z,101947.47
2018-12-14T17:59:34.326Z,101948.98
2018-12-14T18:02:04.554Z,101953.36
2018-12-14T18:04:34.654Z,101953.20
2018-12-14T18:07:04.666Z,101953.67
2018-12-14T18:09:34.824Z,101962.03
2018-12-14T18:12:06.284Z,101958.44
2018-12-14T18:14:36.323Z,101965.87
2018-12-14T18:17:06.385Z,101974.63
2018-12-14T18:19:36.535Z,101967.52
2018-12-14T18:22:06.578Z,101965.69
2018-12-14T18:24:36.711Z,101964.63
2018-12-14T18:27:06.770Z,101975.16
2018-12-14T18:29:37.048Z,101967.34
2018-12-14T18:32:07.249Z,101966.02
2018-12-14T18:34:37.299Z,101972.06
2018-12-14T18:37:07.302Z,101971.36
2018-12-14T18:39:37.424Z,101972.47
2018-12-14T18:42:09.600Z,101970.81
2018-12-14T18:44:39.854Z,101978.56
2018-12-14T18:47:10.902Z,101983.77
2018-12-14T18:49:41.037Z,101976.94
2018-12-14T18:52:11.079Z,101979.81
2018-12-14T18:54:41.156Z,101977.64
2018-12-14T18:57:11.597Z,101979.52
2018-12-14T18:59:41.667Z,101983.80
2018-12-14T19:02:11.842Z,101980.01
2018-12-14T19:04:41.935Z,101984.29
2018-12-14T19:07:11.970Z,101986.37
2018-12-14T19:09:42.152Z,101990.16
2018-12-14T19:12:12.252Z,101990.63
2018-12-14T19:14:42.514Z,101993.75
2018-12-14T19:17:12.509Z,101994.62
2018-12-14T19:19:42.551Z,101999.94
2018-12-14T19:22:12.561Z,102006.41
2018-12-14T19:24:42.662Z,102009.27
2018-12-14T19:27:12.798Z,102012.05
2018-12-14T19:29:42.824Z,102012.54
2018-12-14T19:32:12.840Z,102020.30
2018-12-14T19:34:44.799Z,102023.67
2018-12-14T19:37:14.795Z,102020.81
2018-12-14T19:39:44.913Z,102023.85
2018-12-14T19:42:14.994Z,102025.53
2018-12-14T19:44:45.046Z,102019.92
2018-12-14T19:47:15.340Z,102021.10
2018-12-14T19:49:45.632Z,102022.44
2018-12-14T19:52:16.024Z,102021.28
2018-12-14T19:54:46.282Z,102026.37
2018-12-14T19:57:16.320Z,102022.92
2018-12-14T19:59:46.478Z,102025.56
2018-12-14T20:02:17.045Z,102028.22
2018-12-14T20:04:47.733Z,102022.47
2018-12-14T20:07:17.793Z,102022.06
2018-12-14T20:09:48.725Z,102024.69
2018-12-14T20:12:21.094Z,102022.47
2018-12-14T20:14:51.303Z,102025.12
2018-12-14T20:17:22.767Z,102027.20
2018-12-14T20:19:54.823Z,102021.16
2018-12-14T20:22:28.164Z,102023.39
2018-12-14T20:24:59.187Z,102022.90
2018-12-14T20:27:30.261Z,102022.06
2018-12-14T20:30:00.716Z,102022.09
2018-12-14T20:32:32.030Z,102023.80
2018-12-14T20:35:03.199Z,102015.09
2018-12-14T20:37:34.035Z,102017.28
2018-12-14T20:40:04.867Z,102021.25
2018-12-14T20:42:35.588Z,102017.28
2018-12-14T20:45:08.123Z,102009.02
2018-12-14T20:47:41.589Z,102010.23
2018-12-14T20:50:13.791Z,102014.69
2018-12-14T20:52:44.116Z,102013.38
2018-12-14T20:55:15.210Z,102013.81
2018-12-14T20:57:47.149Z,102013.37
2018-12-14T21:00:17.569Z,102011.67
2018-12-14T21:02:48.380Z,102009.02
2018-12-14T21:05:18.628Z,102009.05
2018-12-14T21:07:50.994Z,102014.53
2018-12-14T21:10:22.323Z,102002.83
2018-12-14T21:12:53.941Z,102014.51
2018-12-14T21:15:27.009Z,102006.79
2018-12-14T21:17:57.076Z,102008.41
2018-12-14T21:20:27.149Z,102008.87
2018-12-14T21:22:57.215Z,102012.77
2018-12-14T21:25:27.300Z,102014.07
2018-12-14T21:27:57.342Z,102010.66
2018-12-14T21:30:27.416Z,102011.91
2018-12-14T21:32:57.451Z,102014.02
2018-12-14T21:35:27.576Z,102014.05
2018-12-14T21:37:57.641Z,102007.62
2018-12-14T21:40:27.816Z,102007.50
2018-12-14T21:42:57.854Z,102015.38
2018-12-14T21:45:27.970Z,102017.02
2018-12-14T21:47:58.020Z,102017.02
2018-12-14T21:50:28.271Z,102014.41
2018-12-14T21:52:58.304Z,102004.94
2018-12-14T21:55:28.357Z,102004.88
2018-12-14T21:57:58.636Z,102007.84
2018-12-14T22:00:28.697Z,102007.84
2018-12-14T22:02:58.712Z,102006.14
2018-12-14T22:05:28.749Z,101997.91
2018-12-14T22:07:58.748Z,101993.69
2018-12-14T22:10:28.785Z,101983.59
2018-12-14T22:12:58.805Z,101978.39
2018-12-14T22:15:28.833Z,101984.52
2018-12-14T22:17:58.815Z,101990.94
2018-12-14T22:20:28.922Z,101989.57
2018-12-14T22:22:59.075Z,101998.21
2018-12-14T22:25:29.132Z,101993.16
2018-12-14T22:27:59.198Z,101989.57
2018-12-14T22:30:29.293Z,101995.67
2018-12-14T22:32:59.416Z,101987.50
2018-12-14T22:35:29.450Z,101986.10
2018-12-14T22:37:59.493Z,101987.44
2018-12-14T22:40:29.646Z,101988.64
2018-12-14T22:42:59.702Z,101987.44
2018-12-14T22:45:29.784Z,101988.73
2018-12-14T22:47:59.865Z,101990.84
2018-12-14T22:50:29.968Z,101993.08
2018-12-14T22:53:00.060Z,101990.91
2018-12-14T22:55:30.134Z,101999.45
2018-12-14T22:58:00.216Z,101998.55
2018-12-14T23:00:30.333Z,102001.12
2018-12-14T23:03:00.668Z,102000.72
2018-12-14T23:05:30.850Z,102004.59
2018-12-14T23:08:01.020Z,102012.15
2018-12-14T23:10:31.318Z,102012.55
2018-12-14T23:13:01.471Z,102016.98
2018-12-14T23:15:32.041Z,102008.77
2018-12-14T23:18:02.731Z,102009.11
2018-12-14T23:20:33.484Z,102013.86
2018-12-14T23:23:03.552Z,102011.69
2018-12-14T23:25:33.652Z,102012.12
2018-12-14T23:28:03.698Z,102012.15
2018-12-14T23:30:33.759Z,102018.59
2018-12-14T23:33:03.892Z,102016.52
2018-12-14T23:35:34.008Z,102014.35
2018-12-14T23:38:04.078Z,102014.78
2018-12-14T23:40:34.225Z,102014.28
2018-12-14T23:43:04.255Z,102013.45
2018-12-14T23:45:34.406Z,102015.09
2018-12-14T23:48:04.638Z,102023.23
2018-12-14T23:50:35.050Z,102021.86
2018-12-14T23:53:05.581Z,102027.42
2018-12-14T23:55:35.747Z,102032.09
2018-12-14T23:58:05.920Z,102024.53
